weather.gov     
National Weather Service

Terminal Aerodrome Forecast
NWS Homepage
This page is being discontinued on March 12, 2014.
The same data is available at this site. Please update your bookmarks.
Thank you, and we apologize for the inconvenience.
Please send an email to SR-SRH.Webmaster@noaa.gov with any concerns.


Current Version
Previous Version:    01  02  03  04  05  06  07  08  09  10  11  12  13  14  
[Printable]
905
FTUS41 KCAR 161100
TAFBGR
TAF
KBGR 161120Z 1612/1712 VRB03KT P6SM -SHRA OVC035
     FM161800 20006KT P6SM BKN035
     FM162000 20007KT P6SM BKN040
     FM162300 VRB03KT P6SM FEW050 SCT100
     FM170300 VRB02KT 3SM BR SCT250
     FM171100 24004KT P6SM SCT150=


U.S. Dept. of Commerce
NOAA National Weather Service
1325 East West Highway
Silver Spring, MD 20910
E-mail: w-nws.webmaster@noaa.gov
Page last modified: May 16, 2007
NATIONAL WEATHER SERVICE: for Safety, for Work, for Fun - FOR LIFE